createdAt,value
2022-10-17T00:08:30.510Z,9.44
2022-10-17T00:18:32.478Z,9.32
2022-10-17T00:28:35.193Z,9.29
2022-10-17T00:38:37.163Z,9.18
2022-10-17T00:48:40.080Z,9.04
2022-10-17T00:58:41.782Z,8.94
2022-10-17T01:08:44.801Z,8.85
2022-10-17T01:18:56.822Z,8.90
2022-10-17T01:29:16.500Z,8.78
2022-10-17T01:39:28.112Z,8.62
2022-10-17T01:49:33.595Z,8.60
2022-10-17T01:59:44.490Z,8.61
2022-10-17T02:09:46.161Z,8.55
2022-10-17T02:20:12.734Z,8.47
2022-10-17T02:30:17.241Z,8.41
2022-10-17T02:40:24.314Z,8.32
2022-10-17T02:50:43.478Z,8.25
2022-10-17T03:00:49.086Z,8.13
2022-10-17T03:10:51.373Z,8.04
2022-10-17T03:20:53.017Z,8.05
2022-10-17T03:30:54.553Z,7.92
2022-10-17T03:40:58.534Z,7.82
2022-10-17T03:51:01.824Z,7.76
2022-10-17T04:01:09.235Z,7.71
2022-10-17T04:11:15.852Z,7.75
2022-10-17T04:21:18.373Z,7.70
2022-10-17T04:31:20.163Z,7.59
2022-10-17T04:41:21.712Z,7.59
2022-10-17T04:51:26.609Z,7.56
2022-10-17T05:01:28.650Z,7.59
2022-10-17T05:11:32.567Z,7.58
2022-10-17T05:21:43.448Z,7.59
2022-10-17T05:31:52.421Z,7.63
2022-10-17T05:41:54.035Z,7.92
2022-10-17T05:52:03.252Z,8.03
2022-10-17T06:02:04.970Z,8.26
2022-10-17T06:12:07.336Z,8.58
2022-10-17T06:22:08.915Z,8.81
2022-10-17T06:32:14.908Z,9.22
2022-10-17T06:42:23.145Z,9.66
2022-10-17T06:52:24.865Z,10.14
2022-10-17T07:02:26.860Z,10.56
2022-10-17T07:12:52.349Z,11.13
2022-10-17T07:23:03.614Z,11.63
2022-10-17T07:33:08.349Z,12.10
2022-10-17T07:43:09.986Z,12.68
2022-10-17T07:53:11.585Z,13.49
2022-10-17T08:03:14.677Z,14.97
2022-10-17T08:13:16.578Z,16.11
2022-10-17T08:23:22.132Z,17.18
2022-10-17T08:33:25.209Z,17.79
2022-10-17T08:43:51.522Z,18.67
2022-10-17T08:54:01.929Z,19.42
2022-10-17T09:04:37.961Z,21.28
2022-10-17T09:14:57.505Z,22.06
2022-10-17T09:25:07.326Z,22.48
2022-10-17T09:35:15.152Z,23.90
2022-10-17T09:45:25.021Z,24.03
2022-10-17T09:55:37.635Z,26.59
2022-10-17T10:05:40.683Z,25.66
2022-10-17T10:15:46.440Z,26.46
2022-10-17T10:25:55.875Z,25.75
2022-10-17T10:36:03.495Z,26.99
2022-10-17T10:46:18.375Z,24.76
2022-10-17T10:56:28.550Z,26.21
2022-10-17T11:06:38.729Z,26.72
2022-10-17T11:16:52.702Z,26.79
2022-10-17T11:27:00.058Z,29.40
2022-10-17T11:37:16.416Z,30.55
2022-10-17T11:47:40.841Z,31.54
2022-10-17T11:57:53.930Z,31.73
2022-10-17T12:08:30.588Z,34.12
2022-10-17T12:18:33.231Z,32.18
2022-10-17T12:28:38.076Z,35.14
2022-10-17T12:38:40.322Z,33.91
2022-10-17T12:48:43.179Z,33.38
2022-10-17T12:58:50.281Z,33.93
2022-10-17T13:09:03.477Z,34.00
2022-10-17T13:19:20.083Z,32.15
2022-10-17T13:29:23.749Z,30.70
2022-10-17T13:39:45.297Z,30.89
2022-10-17T13:49:55.430Z,33.67
2022-10-17T13:59:59.787Z,35.96
2022-10-17T14:10:07.286Z,34.48
2022-10-17T14:31:01.421Z,32.78
2022-10-17T14:41:40.808Z,25.44
2022-10-17T14:51:44.656Z,22.25
2022-10-17T15:01:55.366Z,21.23
2022-10-17T15:12:02.547Z,20.78
2022-10-17T15:22:04.110Z,20.28
2022-10-17T15:32:05.912Z,19.90
2022-10-17T15:42:12.122Z,19.16
2022-10-17T15:52:18.143Z,18.52
2022-10-17T16:02:21.946Z,17.80
2022-10-17T16:12:30.095Z,17.17
2022-10-17T16:22:36.645Z,16.75
2022-10-17T16:32:39.298Z,16.38
2022-10-17T16:42:41.713Z,16.00
2022-10-17T16:52:43.912Z,15.60
2022-10-17T17:02:48.175Z,15.21
2022-10-17T17:12:50.880Z,14.95
2022-10-17T17:22:53.203Z,14.71
2022-10-17T17:33:03.151Z,14.56
2022-10-17T17:43:05.213Z,14.39
2022-10-17T17:53:09.020Z,14.01
2022-10-17T18:03:17.381Z,13.70
2022-10-17T18:13:22.476Z,13.44
2022-10-17T18:23:24.699Z,13.46
2022-10-17T18:33:26.722Z,13.19
2022-10-17T18:43:29.941Z,13.08
2022-10-17T18:53:32.742Z,13.04
2022-10-17T19:03:34.679Z,12.68
2022-10-17T19:13:38.472Z,12.54
2022-10-17T19:23:56.933Z,12.22
2022-10-17T19:33:59.583Z,12.15
2022-10-17T19:44:02.139Z,11.99
2022-10-17T19:54:11.344Z,11.81
2022-10-17T20:04:16.201Z,11.54
2022-10-17T20:14:24.469Z,11.57
2022-10-17T20:24:28.226Z,11.34
2022-10-17T20:34:35.844Z,11.24
2022-10-17T20:44:46.106Z,11.10
2022-10-17T20:54:48.632Z,10.99
2022-10-17T21:04:53.471Z,10.73
2022-10-17T21:15:18.387Z,10.55
2022-10-17T21:46:58.810Z,10.23
2022-10-17T21:57:00.433Z,10.15
2022-10-17T22:07:02.035Z,9.98
2022-10-17T22:17:08.697Z,9.85
2022-10-17T22:27:10.517Z,9.75
2022-10-17T22:37:12.198Z,9.60
2022-10-17T22:47:14.068Z,9.67
2022-10-17T22:57:15.669Z,9.50
2022-10-17T23:07:17.232Z,9.38
2022-10-17T23:17:18.830Z,9.24
2022-10-17T23:27:23.450Z,9.25
2022-10-17T23:37:27.194Z,9.08
2022-10-17T23:47:31.373Z,8.96
2022-10-17T23:57:33.956Z,8.90
